sensor_id;sensor_type;location;lat;lon;timestamp;P1;durP1;ratioP1;P2;durP2;ratioP2
51475;SDS011;37554;50.362;7.568;2023-03-05T00:01:28;5.35;;;2.70;;
51475;SDS011;37554;50.362;7.568;2023-03-05T00:03:57;4.00;;;2.20;;
51475;SDS011;37554;50.362;7.568;2023-03-05T00:06:23;3.42;;;2.38;;
51475;SDS011;37554;50.362;7.568;2023-03-05T00:08:50;6.47;;;2.42;;
51475;SDS011;37554;50.362;7.568;2023-03-05T00:11:17;4.65;;;2.33;;
51475;SDS011;37554;50.362;7.568;2023-03-05T00:13:44;3.75;;;2.53;;
51475;SDS011;37554;50.362;7.568;2023-03-05T00:16:12;5.13;;;2.88;;
51475;SDS011;37554;50.362;7.568;2023-03-05T00:18:39;5.05;;;3.10;;
51475;SDS011;37554;50.362;7.568;2023-03-05T00:21:16;4.47;;;2.45;;
51475;SDS011;37554;50.362;7.568;2023-03-05T00:23:53;3.53;;;2.67;;
51475;SDS011;37554;50.362;7.568;2023-03-05T00:26:20;4.38;;;2.45;;
51475;SDS011;37554;50.362;7.568;2023-03-05T00:28:47;5.00;;;3.08;;
51475;SDS011;37554;50.362;7.568;2023-03-05T00:31:17;3.15;;;2.50;;
51475;SDS011;37554;50.362;7.568;2023-03-05T00:33:45;3.42;;;2.90;;
51475;SDS011;37554;50.362;7.568;2023-03-05T00:36:14;5.40;;;3.17;;
51475;SDS011;37554;50.362;7.568;2023-03-05T00:38:39;5.43;;;3.58;;
51475;SDS011;37554;50.362;7.568;2023-03-05T00:41:05;4.13;;;2.85;;
51475;SDS011;37554;50.362;7.568;2023-03-05T00:43:32;4.95;;;2.80;;
51475;SDS011;37554;50.362;7.568;2023-03-05T00:45:57;3.47;;;2.58;;
51475;SDS011;37554;50.362;7.568;2023-03-05T00:48:23;4.22;;;2.90;;
51475;SDS011;37554;50.362;7.568;2023-03-05T00:50:49;3.70;;;2.80;;
51475;SDS011;37554;50.362;7.568;2023-03-05T00:53:16;5.03;;;3.15;;
51475;SDS011;37554;50.362;7.568;2023-03-05T00:55:42;3.50;;;2.50;;
51475;SDS011;37554;50.362;7.568;2023-03-05T00:58:08;4.50;;;2.50;;
51475;SDS011;37554;50.362;7.568;2023-03-05T01:00:33;4.35;;;2.63;;
51475;SDS011;37554;50.362;7.568;2023-03-05T01:03:00;4.07;;;2.63;;
51475;SDS011;37554;50.362;7.568;2023-03-05T01:05:26;3.70;;;2.40;;
51475;SDS011;37554;50.362;7.568;2023-03-05T01:07:53;3.42;;;2.33;;
51475;SDS011;37554;50.362;7.568;2023-03-05T01:10:19;3.63;;;2.10;;
51475;SDS011;37554;50.362;7.568;2023-03-05T01:12:45;4.00;;;2.05;;
51475;SDS011;37554;50.362;7.568;2023-03-05T01:15:11;4.15;;;2.20;;
51475;SDS011;37554;50.362;7.568;2023-03-05T01:17:37;4.68;;;1.98;;
51475;SDS011;37554;50.362;7.568;2023-03-05T01:20:03;4.57;;;2.22;;
51475;SDS011;37554;50.362;7.568;2023-03-05T01:22:29;3.33;;;1.80;;
51475;SDS011;37554;50.362;7.568;2023-03-05T01:24:55;5.38;;;1.80;;
51475;SDS011;37554;50.362;7.568;2023-03-05T01:27:20;2.85;;;1.80;;
51475;SDS011;37554;50.362;7.568;2023-03-05T01:29:46;3.85;;;1.70;;
51475;SDS011;37554;50.362;7.568;2023-03-05T01:32:12;3.60;;;1.75;;
51475;SDS011;37554;50.362;7.568;2023-03-05T01:34:38;4.43;;;1.45;;
51475;SDS011;37554;50.362;7.568;2023-03-05T01:37:05;4.15;;;1.90;;
51475;SDS011;37554;50.362;7.568;2023-03-05T01:39:31;3.50;;;1.55;;
51475;SDS011;37554;50.362;7.568;2023-03-05T01:41:57;3.47;;;1.90;;
51475;SDS011;37554;50.362;7.568;2023-03-05T01:44:25;3.50;;;1.67;;
51475;SDS011;37554;50.362;7.568;2023-03-05T01:46:52;3.95;;;1.58;;
51475;SDS011;37554;50.362;7.568;2023-03-05T01:49:22;5.18;;;1.52;;
51475;SDS011;37554;50.362;7.568;2023-03-05T01:52:05;5.70;;;2.13;;
51475;SDS011;37554;50.362;7.568;2023-03-05T01:54:36;2.67;;;1.77;;
51475;SDS011;37554;50.362;7.568;2023-03-05T01:57:11;2.58;;;1.33;;
51475;SDS011;37554;50.362;7.568;2023-03-05T01:59:41;3.70;;;1.55;;
51475;SDS011;37554;50.362;7.568;2023-03-05T02:02:08;2.53;;;1.25;;
51475;SDS011;37554;50.362;7.568;2023-03-05T02:04:41;3.65;;;1.38;;
51475;SDS011;37554;50.362;7.568;2023-03-05T02:07:30;5.50;;;1.77;;
51475;SDS011;37554;50.362;7.568;2023-03-05T02:09:56;4.50;;;1.63;;
51475;SDS011;37554;50.362;7.568;2023-03-05T02:12:22;4.13;;;1.77;;
51475;SDS011;37554;50.362;7.568;2023-03-05T02:14:48;2.90;;;1.10;;
51475;SDS011;37554;50.362;7.568;2023-03-05T02:17:22;4.35;;;1.58;;
51475;SDS011;37554;50.362;7.568;2023-03-05T02:19:52;3.13;;;1.50;;
51475;SDS011;37554;50.362;7.568;2023-03-05T02:22:20;3.42;;;1.48;;
51475;SDS011;37554;50.362;7.568;2023-03-05T02:24:47;2.92;;;1.50;;
51475;SDS011;37554;50.362;7.568;2023-03-05T02:27:13;2.97;;;1.10;;
51475;SDS011;37554;50.362;7.568;2023-03-05T02:29:41;3.38;;;1.20;;
51475;SDS011;37554;50.362;7.568;2023-03-05T02:32:09;2.63;;;1.40;;
51475;SDS011;37554;50.362;7.568;2023-03-05T02:34:36;3.33;;;1.50;;
51475;SDS011;37554;50.362;7.568;2023-03-05T02:37:02;3.58;;;1.20;;
51475;SDS011;37554;50.362;7.568;2023-03-05T02:39:29;3.50;;;1.45;;
51475;SDS011;37554;50.362;7.568;2023-03-05T02:41:55;4.15;;;1.30;;
51475;SDS011;37554;50.362;7.568;2023-03-05T02:44:21;5.88;;;1.77;;
51475;SDS011;37554;50.362;7.568;2023-03-05T02:46:47;2.80;;;1.25;;
51475;SDS011;37554;50.362;7.568;2023-03-05T02:49:13;2.70;;;1.30;;
51475;SDS011;37554;50.362;7.568;2023-03-05T02:51:39;3.65;;;1.38;;
51475;SDS011;37554;50.362;7.568;2023-03-05T02:54:04;4.15;;;1.77;;
51475;SDS011;37554;50.362;7.568;2023-03-05T02:56:30;2.75;;;1.58;;
51475;SDS011;37554;50.362;7.568;2023-03-05T02:58:58;5.68;;;1.55;;
51475;SDS011;37554;50.362;7.568;2023-03-05T03:01:24;4.07;;;1.70;;
51475;SDS011;37554;50.362;7.568;2023-03-05T03:03:52;3.05;;;1.60;;
51475;SDS011;37554;50.362;7.568;2023-03-05T03:06:18;3.17;;;1.55;;
51475;SDS011;37554;50.362;7.568;2023-03-05T03:08:44;4.57;;;1.50;;
51475;SDS011;37554;50.362;7.568;2023-03-05T03:11:10;2.38;;;1.20;;
51475;SDS011;37554;50.362;7.568;2023-03-05T03:13:39;3.97;;;1.63;;
51475;SDS011;37554;50.362;7.568;2023-03-05T03:16:09;4.18;;;2.05;;
51475;SDS011;37554;50.362;7.568;2023-03-05T03:18:36;4.88;;;1.75;;
51475;SDS011;37554;50.362;7.568;2023-03-05T03:21:02;2.85;;;1.67;;
51475;SDS011;37554;50.362;7.568;2023-03-05T03:23:28;4.05;;;1.75;;
51475;SDS011;37554;50.362;7.568;2023-03-05T03:25:53;3.15;;;1.65;;
51475;SDS011;37554;50.362;7.568;2023-03-05T03:28:19;3.15;;;1.70;;
51475;SDS011;37554;50.362;7.568;2023-03-05T03:30:45;3.72;;;1.55;;
51475;SDS011;37554;50.362;7.568;2023-03-05T03:33:10;3.30;;;1.75;;
51475;SDS011;37554;50.362;7.568;2023-03-05T03:35:36;3.25;;;1.80;;
51475;SDS011;37554;50.362;7.568;2023-03-05T03:38:02;4.38;;;1.90;;
51475;SDS011;37554;50.362;7.568;2023-03-05T03:40:28;3.92;;;1.60;;
51475;SDS011;37554;50.362;7.568;2023-03-05T03:42:53;3.65;;;2.08;;
51475;SDS011;37554;50.362;7.568;2023-03-05T03:45:19;5.95;;;1.80;;
51475;SDS011;37554;50.362;7.568;2023-03-05T03:47:49;4.25;;;1.70;;
51475;SDS011;37554;50.362;7.568;2023-03-05T03:50:16;3.47;;;1.58;;
51475;SDS011;37554;50.362;7.568;2023-03-05T03:52:43;3.55;;;1.60;;
51475;SDS011;37554;50.362;7.568;2023-03-05T03:55:08;4.72;;;1.42;;
51475;SDS011;37554;50.362;7.568;2023-03-05T03:57:35;4.35;;;1.60;;
51475;SDS011;37554;50.362;7.568;2023-03-05T04:00:01;5.10;;;1.70;;
51475;SDS011;37554;50.362;7.568;2023-03-05T04:02:32;3.13;;;1.65;;
51475;SDS011;37554;50.362;7.568;2023-03-05T04:04:57;3.25;;;1.60;;
51475;SDS011;37554;50.362;7.568;2023-03-05T04:07:23;4.15;;;1.25;;
51475;SDS011;37554;50.362;7.568;2023-03-05T04:09:49;3.72;;;1.70;;
51475;SDS011;37554;50.362;7.568;2023-03-05T04:12:14;3.53;;;1.58;;
51475;SDS011;37554;50.362;7.568;2023-03-05T04:14:43;4.35;;;1.73;;
51475;SDS011;37554;50.362;7.568;2023-03-05T04:17:12;4.93;;;1.70;;
51475;SDS011;37554;50.362;7.568;2023-03-05T04:19:39;3.67;;;1.27;;
51475;SDS011;37554;50.362;7.568;2023-03-05T04:22:06;2.85;;;1.52;;
51475;SDS011;37554;50.362;7.568;2023-03-05T04:24:36;4.50;;;1.50;;
51475;SDS011;37554;50.362;7.568;2023-03-05T04:27:02;3.65;;;1.40;;
51475;SDS011;37554;50.362;7.568;2023-03-05T04:29:28;3.13;;;1.23;;
51475;SDS011;37554;50.362;7.568;2023-03-05T04:31:54;2.85;;;1.20;;
51475;SDS011;37554;50.362;7.568;2023-03-05T04:34:20;3.20;;;1.52;;
51475;SDS011;37554;50.362;7.568;2023-03-05T04:36:45;2.63;;;1.30;;
51475;SDS011;37554;50.362;7.568;2023-03-05T04:39:11;3.30;;;1.25;;
51475;SDS011;37554;50.362;7.568;2023-03-05T04:41:37;2.25;;;1.10;;
51475;SDS011;37554;50.362;7.568;2023-03-05T04:44:02;2.22;;;0.95;;
51475;SDS011;37554;50.362;7.568;2023-03-05T04:46:28;4.25;;;1.70;;
51475;SDS011;37554;50.362;7.568;2023-03-05T04:48:54;4.30;;;1.13;;
51475;SDS011;37554;50.362;7.568;2023-03-05T04:51:20;3.42;;;1.15;;
51475;SDS011;37554;50.362;7.568;2023-03-05T04:53:46;3.28;;;1.20;;
51475;SDS011;37554;50.362;7.568;2023-03-05T04:56:12;5.47;;;1.00;;
51475;SDS011;37554;50.362;7.568;2023-03-05T04:58:37;1.52;;;0.77;;
51475;SDS011;37554;50.362;7.568;2023-03-05T05:01:04;3.13;;;0.85;;
51475;SDS011;37554;50.362;7.568;2023-03-05T05:03:30;3.80;;;1.05;;
51475;SDS011;37554;50.362;7.568;2023-03-05T05:05:57;3.05;;;1.42;;
51475;SDS011;37554;50.362;7.568;2023-03-05T05:08:24;3.15;;;0.90;;
51475;SDS011;37554;50.362;7.568;2023-03-05T05:11:00;2.25;;;0.80;;
51475;SDS011;37554;50.362;7.568;2023-03-05T05:13:27;3.67;;;1.17;;
51475;SDS011;37554;50.362;7.568;2023-03-05T05:15:54;2.83;;;0.93;;
51475;SDS011;37554;50.362;7.568;2023-03-05T05:18:20;1.75;;;0.80;;
51475;SDS011;37554;50.362;7.568;2023-03-05T05:20:46;4.00;;;1.02;;
51475;SDS011;37554;50.362;7.568;2023-03-05T05:23:11;2.58;;;0.85;;
51475;SDS011;37554;50.362;7.568;2023-03-05T05:25:37;2.35;;;0.73;;
51475;SDS011;37554;50.362;7.568;2023-03-05T05:28:03;2.78;;;0.77;;
51475;SDS011;37554;50.362;7.568;2023-03-05T05:30:29;2.10;;;0.90;;
51475;SDS011;37554;50.362;7.568;2023-03-05T05:32:55;3.47;;;1.08;;
51475;SDS011;37554;50.362;7.568;2023-03-05T05:35:20;2.58;;;0.88;;
51475;SDS011;37554;50.362;7.568;2023-03-05T05:37:46;2.38;;;0.55;;
51475;SDS011;37554;50.362;7.568;2023-03-05T05:40:12;1.33;;;0.52;;
51475;SDS011;37554;50.362;7.568;2023-03-05T05:42:37;2.38;;;0.80;;
51475;SDS011;37554;50.362;7.568;2023-03-05T05:45:03;1.42;;;0.70;;
51475;SDS011;37554;50.362;7.568;2023-03-05T05:47:29;1.80;;;0.80;;
51475;SDS011;37554;50.362;7.568;2023-03-05T05:49:55;2.53;;;0.90;;
51475;SDS011;37554;50.362;7.568;2023-03-05T05:52:21;1.45;;;0.60;;
51475;SDS011;37554;50.362;7.568;2023-03-05T05:54:47;1.55;;;0.70;;
51475;SDS011;37554;50.362;7.568;2023-03-05T05:57:13;1.70;;;0.60;;
51475;SDS011;37554;50.362;7.568;2023-03-05T05:59:39;1.73;;;0.73;;
51475;SDS011;37554;50.362;7.568;2023-03-05T06:02:05;2.35;;;0.70;;
51475;SDS011;37554;50.362;7.568;2023-03-05T06:04:35;2.10;;;0.82;;
51475;SDS011;37554;50.362;7.568;2023-03-05T06:07:01;1.98;;;1.02;;
51475;SDS011;37554;50.362;7.568;2023-03-05T06:09:27;2.25;;;0.75;;
51475;SDS011;37554;50.362;7.568;2023-03-05T06:11:53;2.40;;;0.95;;
51475;SDS011;37554;50.362;7.568;2023-03-05T06:14:19;1.83;;;0.73;;
51475;SDS011;37554;50.362;7.568;2023-03-05T06:16:45;3.42;;;1.23;;
51475;SDS011;37554;50.362;7.568;2023-03-05T06:19:11;1.55;;;0.90;;
51475;SDS011;37554;50.362;7.568;2023-03-05T06:21:37;2.90;;;1.20;;
51475;SDS011;37554;50.362;7.568;2023-03-05T06:24:03;2.95;;;1.15;;
51475;SDS011;37554;50.362;7.568;2023-03-05T06:26:29;1.58;;;0.95;;
51475;SDS011;37554;50.362;7.568;2023-03-05T06:28:55;2.55;;;1.23;;
51475;SDS011;37554;50.362;7.568;2023-03-05T06:31:22;2.58;;;1.40;;
51475;SDS011;37554;50.362;7.568;2023-03-05T06:33:50;2.03;;;1.10;;
51475;SDS011;37554;50.362;7.568;2023-03-05T06:36:17;1.88;;;1.15;;
51475;SDS011;37554;50.362;7.568;2023-03-05T06:38:44;1.70;;;1.10;;
51475;SDS011;37554;50.362;7.568;2023-03-05T06:41:12;1.75;;;1.05;;
51475;SDS011;37554;50.362;7.568;2023-03-05T06:43:40;2.17;;;1.20;;
51475;SDS011;37554;50.362;7.568;2023-03-05T06:46:09;2.03;;;1.27;;
51475;SDS011;37554;50.362;7.568;2023-03-05T06:48:44;1.42;;;0.93;;
51475;SDS011;37554;50.362;7.568;2023-03-05T06:51:14;1.60;;;1.15;;
51475;SDS011;37554;50.362;7.568;2023-03-05T06:53:44;1.50;;;1.17;;
51475;SDS011;37554;50.362;7.568;2023-03-05T06:56:10;1.75;;;1.20;;
51475;SDS011;37554;50.362;7.568;2023-03-05T06:58:38;2.95;;;1.30;;
51475;SDS011;37554;50.362;7.568;2023-03-05T07:01:07;2.08;;;1.45;;
51475;SDS011;37554;50.362;7.568;2023-03-05T07:03:34;2.88;;;1.38;;
51475;SDS011;37554;50.362;7.568;2023-03-05T07:06:07;4.72;;;1.95;;
51475;SDS011;37554;50.362;7.568;2023-03-05T07:08:34;2.53;;;1.45;;
51475;SDS011;37554;50.362;7.568;2023-03-05T07:11:01;1.98;;;1.33;;
51475;SDS011;37554;50.362;7.568;2023-03-05T07:13:27;2.30;;;1.13;;
51475;SDS011;37554;50.362;7.568;2023-03-05T07:15:53;1.80;;;1.20;;
51475;SDS011;37554;50.362;7.568;2023-03-05T07:18:19;3.42;;;1.50;;
51475;SDS011;37554;50.362;7.568;2023-03-05T07:20:45;2.20;;;1.58;;
51475;SDS011;37554;50.362;7.568;2023-03-05T07:23:11;2.15;;;1.50;;
51475;SDS011;37554;50.362;7.568;2023-03-05T07:25:37;4.53;;;1.70;;
51475;SDS011;37554;50.362;7.568;2023-03-05T07:28:06;2.90;;;1.52;;
51475;SDS011;37554;50.362;7.568;2023-03-05T07:30:32;2.25;;;1.48;;
51475;SDS011;37554;50.362;7.568;2023-03-05T07:32:58;2.17;;;1.38;;
51475;SDS011;37554;50.362;7.568;2023-03-05T07:35:24;3.95;;;1.55;;
51475;SDS011;37554;50.362;7.568;2023-03-05T07:37:50;2.38;;;1.52;;
51475;SDS011;37554;50.362;7.568;2023-03-05T07:40:16;2.80;;;1.60;;
51475;SDS011;37554;50.362;7.568;2023-03-05T07:42:42;2.13;;;1.52;;
51475;SDS011;37554;50.362;7.568;2023-03-05T07:45:08;2.50;;;1.50;;
51475;SDS011;37554;50.362;7.568;2023-03-05T07:47:34;1.80;;;1.38;;
51475;SDS011;37554;50.362;7.568;2023-03-05T07:50:01;2.53;;;1.88;;
51475;SDS011;37554;50.362;7.568;2023-03-05T07:52:27;1.80;;;1.40;;
51475;SDS011;37554;50.362;7.568;2023-03-05T07:54:53;2.33;;;1.50;;
51475;SDS011;37554;50.362;7.568;2023-03-05T07:57:19;2.72;;;1.75;;
51475;SDS011;37554;50.362;7.568;2023-03-05T07:59:44;3.00;;;1.70;;
51475;SDS011;37554;50.362;7.568;2023-03-05T08:02:11;3.72;;;1.85;;
51475;SDS011;37554;50.362;7.568;2023-03-05T08:04:37;2.58;;;1.67;;
51475;SDS011;37554;50.362;7.568;2023-03-05T08:07:03;4.70;;;2.45;;
51475;SDS011;37554;50.362;7.568;2023-03-05T08:09:29;4.68;;;2.40;;
51475;SDS011;37554;50.362;7.568;2023-03-05T08:11:55;3.85;;;2.17;;
51475;SDS011;37554;50.362;7.568;2023-03-05T08:14:20;4.47;;;2.22;;
51475;SDS011;37554;50.362;7.568;2023-03-05T08:16:46;3.72;;;2.00;;
51475;SDS011;37554;50.362;7.568;2023-03-05T08:19:16;4.05;;;2.03;;
51475;SDS011;37554;50.362;7.568;2023-03-05T08:21:43;3.05;;;1.63;;
51475;SDS011;37554;50.362;7.568;2023-03-05T08:24:14;3.53;;;1.40;;
51475;SDS011;37554;50.362;7.568;2023-03-05T08:26:40;3.38;;;1.73;;
51475;SDS011;37554;50.362;7.568;2023-03-05T08:29:29;7.35;;;1.73;;
51475;SDS011;37554;50.362;7.568;2023-03-05T08:31:55;1.20;;;1.00;;
51475;SDS011;37554;50.362;7.568;2023-03-05T08:34:20;3.40;;;1.40;;
51475;SDS011;37554;50.362;7.568;2023-03-05T08:36:49;2.47;;;1.42;;
51475;SDS011;37554;50.362;7.568;2023-03-05T08:39:15;3.03;;;1.50;;
51475;SDS011;37554;50.362;7.568;2023-03-05T08:41:51;2.78;;;1.52;;
51475;SDS011;37554;50.362;7.568;2023-03-05T08:44:16;1.50;;;0.90;;
51475;SDS011;37554;50.362;7.568;2023-03-05T08:47:05;4.22;;;1.05;;
51475;SDS011;37554;50.362;7.568;2023-03-05T08:49:31;2.47;;;1.50;;
51475;SDS011;37554;50.362;7.568;2023-03-05T08:52:38;2.10;;;0.98;;
51475;SDS011;37554;50.362;7.568;2023-03-05T08:55:06;3.67;;;1.02;;
51475;SDS011;37554;50.362;7.568;2023-03-05T08:57:32;2.90;;;0.95;;
51475;SDS011;37554;50.362;7.568;2023-03-05T09:00:04;2.03;;;1.05;;
51475;SDS011;37554;50.362;7.568;2023-03-05T09:02:31;1.75;;;1.05;;
51475;SDS011;37554;50.362;7.568;2023-03-05T09:04:57;2.72;;;1.20;;
51475;SDS011;37554;50.362;7.568;2023-03-05T09:07:23;1.42;;;1.00;;
51475;SDS011;37554;50.362;7.568;2023-03-05T09:09:52;1.73;;;0.90;;
51475;SDS011;37554;50.362;7.568;2023-03-05T09:12:20;2.33;;;1.08;;
51475;SDS011;37554;50.362;7.568;2023-03-05T09:14:46;2.28;;;0.90;;
51475;SDS011;37554;50.362;7.568;2023-03-05T09:17:18;2.00;;;0.80;;
51475;SDS011;37554;50.362;7.568;2023-03-05T09:19:43;1.90;;;1.02;;
51475;SDS011;37554;50.362;7.568;2023-03-05T09:22:09;1.67;;;0.90;;
51475;SDS011;37554;50.362;7.568;2023-03-05T09:24:35;1.92;;;0.88;;
51475;SDS011;37554;50.362;7.568;2023-03-05T09:27:00;3.28;;;1.00;;
51475;SDS011;37554;50.362;7.568;2023-03-05T09:29:26;3.45;;;1.08;;
51475;SDS011;37554;50.362;7.568;2023-03-05T09:31:53;3.30;;;1.25;;
51475;SDS011;37554;50.362;7.568;2023-03-05T09:34:18;2.70;;;1.35;;
51475;SDS011;37554;50.362;7.568;2023-03-05T09:36:45;3.40;;;1.38;;
51475;SDS011;37554;50.362;7.568;2023-03-05T09:39:10;3.75;;;1.20;;
51475;SDS011;37554;50.362;7.568;2023-03-05T09:42:00;6.65;;;1.30;;
51475;SDS011;37554;50.362;7.568;2023-03-05T09:47:53;2.25;;;1.08;;
51475;SDS011;37554;50.362;7.568;2023-03-05T09:52:56;2.30;;;1.10;;
51475;SDS011;37554;50.362;7.568;2023-03-05T09:55:42;2.42;;;1.20;;
51475;SDS011;37554;50.362;7.568;2023-03-05T10:00:40;2.70;;;1.10;;
51475;SDS011;37554;50.362;7.568;2023-03-05T10:03:18;2.97;;;1.02;;
51475;SDS011;37554;50.362;7.568;2023-03-05T10:06:10;1.67;;;0.95;;
51475;SDS011;37554;50.362;7.568;2023-03-05T10:11:25;1.92;;;1.17;;
51475;SDS011;37554;50.362;7.568;2023-03-05T10:13:58;1.52;;;1.05;;
51475;SDS011;37554;50.362;7.568;2023-03-05T10:17:08;3.45;;;1.50;;
51475;SDS011;37554;50.362;7.568;2023-03-05T10:24:42;1.58;;;0.82;;
51475;SDS011;37554;50.362;7.568;2023-03-05T10:27:32;1.88;;;0.95;;
51475;SDS011;37554;50.362;7.568;2023-03-05T10:30:11;3.15;;;1.35;;
51475;SDS011;37554;50.362;7.568;2023-03-05T10:46:34;2.03;;;1.10;;
51475;SDS011;37554;50.362;7.568;2023-03-05T10:49:04;2.30;;;1.30;;
51475;SDS011;37554;50.362;7.568;2023-03-05T10:51:39;1.70;;;1.30;;
51475;SDS011;37554;50.362;7.568;2023-03-05T10:54:25;1.88;;;1.17;;
51475;SDS011;37554;50.362;7.568;2023-03-05T10:59:40;2.22;;;1.33;;
51475;SDS011;37554;50.362;7.568;2023-03-05T11:02:13;3.28;;;1.52;;
51475;SDS011;37554;50.362;7.568;2023-03-05T11:04:39;2.05;;;1.15;;
51475;SDS011;37554;50.362;7.568;2023-03-05T11:07:06;2.83;;;1.45;;
51475;SDS011;37554;50.362;7.568;2023-03-05T11:12:28;2.13;;;1.27;;
51475;SDS011;37554;50.362;7.568;2023-03-05T11:15:09;2.60;;;1.73;;
51475;SDS011;37554;50.362;7.568;2023-03-05T11:18:04;3.75;;;1.90;;
51475;SDS011;37554;50.362;7.568;2023-03-05T11:20:43;4.43;;;2.20;;
51475;SDS011;37554;50.362;7.568;2023-03-05T11:23:10;3.75;;;2.20;;
51475;SDS011;37554;50.362;7.568;2023-03-05T11:25:53;4.03;;;2.42;;
51475;SDS011;37554;50.362;7.568;2023-03-05T11:28:39;6.28;;;2.67;;
51475;SDS011;37554;50.362;7.568;2023-03-05T11:39:22;2.03;;;1.77;;
51475;SDS011;37554;50.362;7.568;2023-03-05T11:41:53;2.42;;;1.80;;
51475;SDS011;37554;50.362;7.568;2023-03-05T11:47:02;2.78;;;2.28;;
51475;SDS011;37554;50.362;7.568;2023-03-05T11:49:29;3.33;;;2.10;;
51475;SDS011;37554;50.362;7.568;2023-03-05T11:52:11;3.45;;;2.17;;
51475;SDS011;37554;50.362;7.568;2023-03-05T11:57:32;2.53;;;2.10;;
51475;SDS011;37554;50.362;7.568;2023-03-05T12:00:06;5.57;;;2.28;;
51475;SDS011;37554;50.362;7.568;2023-03-05T12:02:36;4.15;;;1.65;;
51475;SDS011;37554;50.362;7.568;2023-03-05T12:05:02;2.75;;;1.85;;
51475;SDS011;37554;50.362;7.568;2023-03-05T12:07:35;4.30;;;1.98;;
51475;SDS011;37554;50.362;7.568;2023-03-05T12:10:04;3.38;;;2.08;;
51475;SDS011;37554;50.362;7.568;2023-03-05T12:12:36;4.53;;;2.17;;
51475;SDS011;37554;50.362;7.568;2023-03-05T12:20:36;5.20;;;2.50;;
51475;SDS011;37554;50.362;7.568;2023-03-05T12:23:13;6.45;;;1.83;;
51475;SDS011;37554;50.362;7.568;2023-03-05T12:28:13;3.25;;;2.20;;
51475;SDS011;37554;50.362;7.568;2023-03-05T12:31:00;4.20;;;2.15;;
51475;SDS011;37554;50.362;7.568;2023-03-05T12:38:50;3.00;;;2.10;;
51475;SDS011;37554;50.362;7.568;2023-03-05T12:44:15;3.33;;;2.10;;
51475;SDS011;37554;50.362;7.568;2023-03-05T12:46:42;3.35;;;1.83;;
51475;SDS011;37554;50.362;7.568;2023-03-05T12:49:36;2.65;;;1.63;;
51475;SDS011;37554;50.362;7.568;2023-03-05T12:52:03;3.03;;;1.88;;
51475;SDS011;37554;50.362;7.568;2023-03-05T12:54:39;2.40;;;1.40;;
51475;SDS011;37554;50.362;7.568;2023-03-05T12:59:53;2.00;;;1.30;;
51475;SDS011;37554;50.362;7.568;2023-03-05T13:03:03;2.25;;;1.25;;
51475;SDS011;37554;50.362;7.568;2023-03-05T13:05:32;1.20;;;0.70;;
51475;SDS011;37554;50.362;7.568;2023-03-05T13:13:31;1.75;;;0.98;;
51475;SDS011;37554;50.362;7.568;2023-03-05T13:15:59;3.63;;;1.15;;
51475;SDS011;37554;50.362;7.568;2023-03-05T13:18:27;2.92;;;0.98;;
51475;SDS011;37554;50.362;7.568;2023-03-05T13:21:05;1.58;;;0.73;;
51475;SDS011;37554;50.362;7.568;2023-03-05T13:24:00;2.15;;;0.75;;
51475;SDS011;37554;50.362;7.568;2023-03-05T13:29:44;1.77;;;0.80;;
51475;SDS011;37554;50.362;7.568;2023-03-05T13:31:44;1.38;;;0.75;;
51475;SDS011;37554;50.362;7.568;2023-03-05T13:34:25;1.75;;;0.80;;
51475;SDS011;37554;50.362;7.568;2023-03-05T13:42:18;1.48;;;0.80;;
51475;SDS011;37554;50.362;7.568;2023-03-05T13:44:53;2.28;;;1.23;;
51475;SDS011;37554;50.362;7.568;2023-03-05T13:47:27;2.00;;;1.10;;
51475;SDS011;37554;50.362;7.568;2023-03-05T13:49:58;1.30;;;1.00;;
51475;SDS011;37554;50.362;7.568;2023-03-05T13:52:33;1.02;;;0.75;;
51475;SDS011;37554;50.362;7.568;2023-03-05T13:55:02;3.30;;;1.00;;
51475;SDS011;37554;50.362;7.568;2023-03-05T13:57:37;2.55;;;1.00;;
51475;SDS011;37554;50.362;7.568;2023-03-05T14:00:36;3.10;;;1.00;;
51475;SDS011;37554;50.362;7.568;2023-03-05T14:03:09;1.58;;;0.80;;
51475;SDS011;37554;50.362;7.568;2023-03-05T14:05:44;2.10;;;1.15;;
51475;SDS011;37554;50.362;7.568;2023-03-05T14:08:18;1.73;;;0.90;;
51475;SDS011;37554;50.362;7.568;2023-03-05T14:10:46;4.10;;;0.90;;
51475;SDS011;37554;50.362;7.568;2023-03-05T14:13:16;2.55;;;1.10;;
51475;SDS011;37554;50.362;7.568;2023-03-05T14:16:07;2.33;;;1.00;;
51475;SDS011;37554;50.362;7.568;2023-03-05T14:18:33;1.60;;;0.73;;
51475;SDS011;37554;50.362;7.568;2023-03-05T14:21:09;2.05;;;0.82;;
51475;SDS011;37554;50.362;7.568;2023-03-05T14:23:40;1.95;;;0.85;;
51475;SDS011;37554;50.362;7.568;2023-03-05T14:29:20;2.50;;;0.90;;
51475;SDS011;37554;50.362;7.568;2023-03-05T14:31:46;1.67;;;0.70;;
51475;SDS011;37554;50.362;7.568;2023-03-05T14:34:18;2.85;;;0.80;;
51475;SDS011;37554;50.362;7.568;2023-03-05T14:36:54;1.23;;;0.80;;
51475;SDS011;37554;50.362;7.568;2023-03-05T14:47:34;1.67;;;0.80;;
51475;SDS011;37554;50.362;7.568;2023-03-05T14:50:01;1.15;;;0.68;;
51475;SDS011;37554;50.362;7.568;2023-03-05T14:52:28;1.15;;;0.80;;
51475;SDS011;37554;50.362;7.568;2023-03-05T14:54:55;1.70;;;0.70;;
51475;SDS011;37554;50.362;7.568;2023-03-05T14:57:21;2.95;;;0.80;;
51475;SDS011;37554;50.362;7.568;2023-03-05T14:59:52;1.45;;;0.70;;
51475;SDS011;37554;50.362;7.568;2023-03-05T15:02:23;1.17;;;0.50;;
51475;SDS011;37554;50.362;7.568;2023-03-05T15:04:50;1.08;;;0.50;;
51475;SDS011;37554;50.362;7.568;2023-03-05T15:07:21;1.48;;;0.50;;
51475;SDS011;37554;50.362;7.568;2023-03-05T15:09:55;1.38;;;0.77;;
51475;SDS011;37554;50.362;7.568;2023-03-05T15:12:21;5.32;;;0.68;;
51475;SDS011;37554;50.362;7.568;2023-03-05T15:14:49;2.25;;;0.68;;
51475;SDS011;37554;50.362;7.568;2023-03-05T15:17:22;1.80;;;0.70;;
51475;SDS011;37554;50.362;7.568;2023-03-05T15:19:55;0.95;;;0.60;;
51475;SDS011;37554;50.362;7.568;2023-03-05T15:22:21;1.15;;;0.63;;
51475;SDS011;37554;50.362;7.568;2023-03-05T15:24:46;1.40;;;0.50;;
51475;SDS011;37554;50.362;7.568;2023-03-05T15:27:12;1.55;;;0.50;;
51475;SDS011;37554;50.362;7.568;2023-03-05T15:29:38;1.05;;;0.63;;
51475;SDS011;37554;50.362;7.568;2023-03-05T15:32:04;1.58;;;0.80;;
51475;SDS011;37554;50.362;7.568;2023-03-05T15:34:30;2.38;;;0.80;;
51475;SDS011;37554;50.362;7.568;2023-03-05T15:36:57;1.35;;;0.57;;
51475;SDS011;37554;50.362;7.568;2023-03-05T15:39:23;1.67;;;0.60;;
51475;SDS011;37554;50.362;7.568;2023-03-05T15:41:50;1.67;;;0.60;;
51475;SDS011;37554;50.362;7.568;2023-03-05T15:44:16;1.30;;;0.70;;
51475;SDS011;37554;50.362;7.568;2023-03-05T15:46:42;3.28;;;0.70;;
51475;SDS011;37554;50.362;7.568;2023-03-05T15:49:08;2.60;;;0.70;;
51475;SDS011;37554;50.362;7.568;2023-03-05T15:51:33;1.83;;;0.70;;
51475;SDS011;37554;50.362;7.568;2023-03-05T15:53:59;2.05;;;0.80;;
51475;SDS011;37554;50.362;7.568;2023-03-05T15:56:25;1.50;;;0.80;;
51475;SDS011;37554;50.362;7.568;2023-03-05T15:58:50;4.60;;;1.20;;
51475;SDS011;37554;50.362;7.568;2023-03-05T16:01:16;1.70;;;0.77;;
51475;SDS011;37554;50.362;7.568;2023-03-05T16:03:47;2.00;;;0.75;;
51475;SDS011;37554;50.362;7.568;2023-03-05T16:06:16;1.85;;;0.90;;
51475;SDS011;37554;50.362;7.568;2023-03-05T16:08:46;1.55;;;0.90;;
51475;SDS011;37554;50.362;7.568;2023-03-05T16:11:15;1.95;;;0.93;;
51475;SDS011;37554;50.362;7.568;2023-03-05T16:13:41;2.15;;;0.93;;
51475;SDS011;37554;50.362;7.568;2023-03-05T16:16:07;0.70;;;0.60;;
51475;SDS011;37554;50.362;7.568;2023-03-05T16:18:34;1.30;;;0.82;;
51475;SDS011;37554;50.362;7.568;2023-03-05T16:21:04;1.23;;;0.80;;
51475;SDS011;37554;50.362;7.568;2023-03-05T16:23:29;1.45;;;0.80;;
51475;SDS011;37554;50.362;7.568;2023-03-05T16:25:55;0.85;;;0.50;;
51475;SDS011;37554;50.362;7.568;2023-03-05T16:28:21;1.67;;;0.80;;
51475;SDS011;37554;50.362;7.568;2023-03-05T16:30:53;2.53;;;0.95;;
51475;SDS011;37554;50.362;7.568;2023-03-05T16:33:21;2.22;;;1.00;;